sensor_id;sensor_type;location;lat;lon;timestamp;pressure;altitude;pressure_sealevel;temperature;humidity
78509;BME280;67802;50.846;7.958;2023-03-21T00:00:57;97957.75;;;21.06;33.38
78509;BME280;67802;50.846;7.958;2023-03-21T00:03:23;97949.94;;;21.04;33.41
78509;BME280;67802;50.846;7.958;2023-03-21T00:05:49;97948.25;;;21.03;33.39
78509;BME280;67802;50.846;7.958;2023-03-21T00:08:18;97952.72;;;21.03;33.49
78509;BME280;67802;50.846;7.958;2023-03-21T00:10:43;97945.75;;;21.02;33.39
78509;BME280;67802;50.846;7.958;2023-03-21T00:13:10;97938.81;;;21.01;33.52
78509;BME280;67802;50.846;7.958;2023-03-21T00:15:37;97937.94;;;21.00;33.37
78509;BME280;67802;50.846;7.958;2023-03-21T00:18:17;97938.81;;;21.01;33.42
78509;BME280;67802;50.846;7.958;2023-03-21T00:21:02;97937.13;;;21.00;33.25
78509;BME280;67802;50.846;7.958;2023-03-21T00:23:29;97937.13;;;21.00;33.25
78509;BME280;67802;50.846;7.958;2023-03-21T00:25:55;97936.28;;;20.99;33.26
78509;BME280;67802;50.846;7.958;2023-03-21T00:28:21;97931.00;;;20.99;33.27
78509;BME280;67802;50.846;7.958;2023-03-21T00:30:47;97931.00;;;20.99;33.40
78509;BME280;67802;50.846;7.958;2023-03-21T00:33:12;97922.09;;;21.00;32.81
78509;BME280;67802;50.846;7.958;2023-03-21T00:35:38;97927.38;;;21.00;33.27
78509;BME280;67802;50.846;7.958;2023-03-21T00:38:07;97922.09;;;21.00;33.27
78509;BME280;67802;50.846;7.958;2023-03-21T00:40:33;97920.31;;;21.01;33.14
78509;BME280;67802;50.846;7.958;2023-03-21T00:42:58;97924.75;;;21.00;33.26
78509;BME280;67802;50.846;7.958;2023-03-21T00:45:23;97924.63;;;21.02;33.13
78509;BME280;67802;50.846;7.958;2023-03-21T00:47:49;97926.31;;;21.03;33.20
78509;BME280;67802;50.846;7.958;2023-03-21T00:50:14;97914.88;;;21.02;33.10
78509;BME280;67802;50.846;7.958;2023-03-21T00:52:40;97917.41;;;21.04;33.07
78509;BME280;67802;50.846;7.958;2023-03-21T00:55:06;97908.53;;;21.05;33.15
78509;BME280;67802;50.846;7.958;2023-03-21T00:57:31;97910.19;;;21.06;33.15
78509;BME280;67802;50.846;7.958;2023-03-21T00:59:57;97903.94;;;21.07;33.19
78509;BME280;67802;50.846;7.958;2023-03-21T01:02:23;97908.25;;;21.08;33.10
78509;BME280;67802;50.846;7.958;2023-03-21T01:04:54;97901.16;;;21.09;33.05
78509;BME280;67802;50.846;7.958;2023-03-21T01:07:19;97901.88;;;21.11;32.98
78509;BME280;67802;50.846;7.958;2023-03-21T01:09:44;97901.75;;;21.12;32.76
78509;BME280;67802;50.846;7.958;2023-03-21T01:12:10;97900.78;;;21.13;32.89
78509;BME280;67802;50.846;7.958;2023-03-21T01:14:36;97901.50;;;21.15;32.89
78509;BME280;67802;50.846;7.958;2023-03-21T01:17:01;97895.25;;;21.16;32.89
78509;BME280;67802;50.846;7.958;2023-03-21T01:19:26;97899.41;;;21.19;32.89
78509;BME280;67802;50.846;7.958;2023-03-21T01:21:54;97897.63;;;21.19;32.93
78509;BME280;67802;50.846;7.958;2023-03-21T01:24:19;97893.00;;;21.22;32.81
78509;BME280;67802;50.846;7.958;2023-03-21T01:26:44;97890.25;;;21.23;33.01
78509;BME280;67802;50.846;7.958;2023-03-21T01:29:10;97887.47;;;21.25;32.70
78509;BME280;67802;50.846;7.958;2023-03-21T01:31:35;97883.84;;;21.26;32.72
78509;BME280;67802;50.846;7.958;2023-03-21T01:34:00;97890.00;;;21.26;32.66
78509;BME280;67802;50.846;7.958;2023-03-21T01:36:26;97886.50;;;21.26;32.79
78509;BME280;67802;50.846;7.958;2023-03-21T01:38:52;97889.13;;;21.26;32.63
78509;BME280;67802;50.846;7.958;2023-03-21T01:41:22;97884.72;;;21.26;32.74
78509;BME280;67802;50.846;7.958;2023-03-21T01:43:48;97892.63;;;21.26;32.77
78509;BME280;67802;50.846;7.958;2023-03-21T01:51:41;97883.84;;;21.26;32.76
78509;BME280;67802;50.846;7.958;2023-03-21T01:54:10;97876.06;;;21.24;32.63
78509;BME280;67802;50.846;7.958;2023-03-21T01:56:39;97883.16;;;21.24;32.64
78509;BME280;67802;50.846;7.958;2023-03-21T01:59:10;97876.06;;;21.24;32.70
78509;BME280;67802;50.846;7.958;2023-03-21T02:01:37;97877.88;;;21.24;32.76
78509;BME280;67802;50.846;7.958;2023-03-21T02:04:06;97877.03;;;21.23;32.63
78509;BME280;67802;50.846;7.958;2023-03-21T02:06:47;97874.41;;;21.23;32.50
78509;BME280;67802;50.846;7.958;2023-03-21T02:09:18;97871.88;;;21.22;32.72
78509;BME280;67802;50.846;7.958;2023-03-21T02:11:45;97875.38;;;21.22;32.72
78509;BME280;67802;50.846;7.958;2023-03-21T02:14:16;97860.50;;;21.21;32.65
78509;BME280;67802;50.846;7.958;2023-03-21T02:16:52;97858.00;;;21.19;32.73
78509;BME280;67802;50.846;7.958;2023-03-21T02:19:39;97861.47;;;21.20;32.67
78509;BME280;67802;50.846;7.958;2023-03-21T02:22:27;97857.00;;;21.20;32.52
78509;BME280;67802;50.846;7.958;2023-03-21T02:27:50;97847.44;;;21.19;32.70
78509;BME280;67802;50.846;7.958;2023-03-21T02:36:23;97839.63;;;21.18;32.72
78509;BME280;67802;50.846;7.958;2023-03-21T02:39:52;97833.53;;;21.17;32.58
78509;BME280;67802;50.846;7.958;2023-03-21T02:41:51;97842.41;;;21.16;32.63
78509;BME280;67802;50.846;7.958;2023-03-21T02:47:24;97828.50;;;21.14;32.58
78509;BME280;67802;50.846;7.958;2023-03-21T02:49:59;97829.47;;;21.13;32.70
78509;BME280;67802;50.846;7.958;2023-03-21T02:52:29;97830.44;;;21.12;32.68
78509;BME280;67802;50.846;7.958;2023-03-21T02:54:57;97832.22;;;21.12;32.52
78509;BME280;67802;50.846;7.958;2023-03-21T02:57:23;97825.28;;;21.11;32.92
78509;BME280;67802;50.846;7.958;2023-03-21T02:59:49;97828.06;;;21.09;32.63
78509;BME280;67802;50.846;7.958;2023-03-21T03:02:19;97823.75;;;21.08;32.63
78509;BME280;67802;50.846;7.958;2023-03-21T03:04:47;97827.34;;;21.07;32.81
78509;BME280;67802;50.846;7.958;2023-03-21T03:07:30;97824.84;;;21.05;32.66
78509;BME280;67802;50.846;7.958;2023-03-21T03:12:48;97810.22;;;21.01;32.68
78509;BME280;67802;50.846;7.958;2023-03-21T03:18:06;97808.69;;;20.99;32.80
78509;BME280;67802;50.846;7.958;2023-03-21T03:21:01;97812.31;;;20.98;32.74
78509;BME280;67802;50.846;7.958;2023-03-21T03:23:49;97808.97;;;20.96;32.85
78509;BME280;67802;50.846;7.958;2023-03-21T03:26:18;97805.63;;;20.94;32.71
78509;BME280;67802;50.846;7.958;2023-03-21T03:28:50;97800.34;;;20.94;32.64
78509;BME280;67802;50.846;7.958;2023-03-21T03:31:20;97806.59;;;20.93;32.76
78509;BME280;67802;50.846;7.958;2023-03-21T03:33:51;97797.00;;;20.92;32.75
78509;BME280;67802;50.846;7.958;2023-03-21T03:36:19;97797.00;;;20.92;32.68
78509;BME280;67802;50.846;7.958;2023-03-21T03:38:48;97796.16;;;20.91;32.77
78509;BME280;67802;50.846;7.958;2023-03-21T03:41:21;97793.53;;;20.91;32.93
78509;BME280;67802;50.846;7.958;2023-03-21T03:43:50;97794.50;;;20.90;32.87
78509;BME280;67802;50.846;7.958;2023-03-21T03:46:26;97795.31;;;20.90;32.63
78509;BME280;67802;50.846;7.958;2023-03-21T03:49:03;97795.31;;;20.90;32.84
78509;BME280;67802;50.846;7.958;2023-03-21T03:52:11;97785.59;;;20.91;32.75
78509;BME280;67802;50.846;7.958;2023-03-21T03:54:40;97787.41;;;20.90;32.68
78509;BME280;67802;50.846;7.958;2023-03-21T03:57:07;97790.88;;;20.91;32.71
78509;BME280;67802;50.846;7.958;2023-03-21T03:59:35;97780.19;;;20.93;32.63
78509;BME280;67802;50.846;7.958;2023-03-21T04:02:01;97781.84;;;20.94;32.70
78509;BME280;67802;50.846;7.958;2023-03-21T04:04:27;97789.78;;;20.94;32.75
78509;BME280;67802;50.846;7.958;2023-03-21T04:06:54;97788.81;;;20.95;32.80
78509;BME280;67802;50.846;7.958;2023-03-21T04:09:20;97786.16;;;20.95;32.72
78509;BME280;67802;50.846;7.958;2023-03-21T04:11:45;97782.56;;;20.96;32.79
78509;BME280;67802;50.846;7.958;2023-03-21T04:14:11;97791.19;;;20.98;32.74
78509;BME280;67802;50.846;7.958;2023-03-21T04:16:36;97780.63;;;20.98;32.61
78509;BME280;67802;50.846;7.958;2023-03-21T04:19:01;97777.00;;;20.99;32.73
78509;BME280;67802;50.846;7.958;2023-03-21T04:21:26;97778.69;;;21.00;32.82
78509;BME280;67802;50.846;7.958;2023-03-21T04:23:53;97769.78;;;21.01;32.64
78509;BME280;67802;50.846;7.958;2023-03-21T04:26:22;97771.47;;;21.02;32.67
78509;BME280;67802;50.846;7.958;2023-03-21T04:28:49;97775.63;;;21.04;32.72
78509;BME280;67802;50.846;7.958;2023-03-21T04:31:15;97774.53;;;21.07;32.50
78509;BME280;67802;50.846;7.958;2023-03-21T04:33:44;97777.19;;;21.07;32.63
78509;BME280;67802;50.846;7.958;2023-03-21T04:36:12;97771.75;;;21.09;32.46
78509;BME280;67802;50.846;7.958;2023-03-21T04:38:48;97769.00;;;21.10;32.71
78509;BME280;67802;50.846;7.958;2023-03-21T04:41:14;97766.19;;;21.12;32.46
78509;BME280;67802;50.846;7.958;2023-03-21T04:43:39;97766.09;;;21.13;32.42
78509;BME280;67802;50.846;7.958;2023-03-21T04:46:05;97759.81;;;21.14;32.51
78509;BME280;67802;50.846;7.958;2023-03-21T04:48:30;97767.47;;;21.17;32.50
78509;BME280;67802;50.846;7.958;2023-03-21T04:50:55;97765.53;;;21.19;32.58
78509;BME280;67802;50.846;7.958;2023-03-21T04:53:21;97769.00;;;21.20;32.47
78509;BME280;67802;50.846;7.958;2023-03-21T04:55:46;97765.41;;;21.21;32.40
78509;BME280;67802;50.846;7.958;2023-03-21T04:58:11;97766.22;;;21.22;32.49
78509;BME280;67802;50.846;7.958;2023-03-21T05:00:37;97763.56;;;21.22;32.46
78509;BME280;67802;50.846;7.958;2023-03-21T05:03:07;97766.22;;;21.22;32.41
78509;BME280;67802;50.846;7.958;2023-03-21T05:05:34;97772.34;;;21.22;32.42
78509;BME280;67802;50.846;7.958;2023-03-21T05:08:00;97765.41;;;21.21;32.48
78509;BME280;67802;50.846;7.958;2023-03-21T05:10:26;97770.69;;;21.21;32.32
78509;BME280;67802;50.846;7.958;2023-03-21T05:12:51;97765.41;;;21.21;32.50
78509;BME280;67802;50.846;7.958;2023-03-21T05:15:16;97762.91;;;21.19;32.48
78509;BME280;67802;50.846;7.958;2023-03-21T05:17:41;97768.19;;;21.19;32.33
78509;BME280;67802;50.846;7.958;2023-03-21T05:20:09;97773.47;;;21.19;32.42
78509;BME280;67802;50.846;7.958;2023-03-21T05:22:35;97766.50;;;21.18;32.28
78509;BME280;67802;50.846;7.958;2023-03-21T05:25:08;97769.97;;;21.19;32.20
78509;BME280;67802;50.846;7.958;2023-03-21T05:27:34;97764.84;;;21.17;32.30
78509;BME280;67802;50.846;7.958;2023-03-21T05:30:01;97765.66;;;21.18;32.37
78509;BME280;67802;50.846;7.958;2023-03-21T05:32:27;97764.84;;;21.17;32.28
78509;BME280;67802;50.846;7.958;2023-03-21T05:34:52;97762.19;;;21.17;32.29
78509;BME280;67802;50.846;7.958;2023-03-21T05:37:17;97757.88;;;21.16;32.45
78509;BME280;67802;50.846;7.958;2023-03-21T05:39:42;97763.16;;;21.16;32.38
78509;BME280;67802;50.846;7.958;2023-03-21T05:42:08;97762.47;;;21.14;32.37
78509;BME280;67802;50.846;7.958;2023-03-21T05:44:33;97757.88;;;21.16;32.28
78509;BME280;67802;50.846;7.958;2023-03-21T05:46:59;97758.97;;;21.14;32.43
78509;BME280;67802;50.846;7.958;2023-03-21T05:49:24;97759.81;;;21.14;32.31
78509;BME280;67802;50.846;7.958;2023-03-21T05:51:51;97759.81;;;21.14;32.37
78509;BME280;67802;50.846;7.958;2023-03-21T05:54:16;97760.78;;;21.13;32.32
78509;BME280;67802;50.846;7.958;2023-03-21T05:56:41;97761.75;;;21.12;32.29
78509;BME280;67802;50.846;7.958;2023-03-21T05:59:06;97766.09;;;21.13;32.30
78509;BME280;67802;50.846;7.958;2023-03-21T06:01:32;97769.69;;;21.12;32.37
78509;BME280;67802;50.846;7.958;2023-03-21T06:03:57;97770.50;;;21.13;32.30
78509;BME280;67802;50.846;7.958;2023-03-21T06:06:23;97767.06;;;21.12;32.40
78509;BME280;67802;50.846;7.958;2023-03-21T06:08:48;97769.00;;;21.10;32.49
78509;BME280;67802;50.846;7.958;2023-03-21T06:11:23;97769.97;;;21.09;32.23
78509;BME280;67802;50.846;7.958;2023-03-21T06:13:50;97767.69;;;21.04;32.25
78509;BME280;67802;50.846;7.958;2023-03-21T06:16:15;97767.59;;;21.06;32.40
78509;BME280;67802;50.846;7.958;2023-03-21T06:18:40;97771.75;;;21.09;32.26
78509;BME280;67802;50.846;7.958;2023-03-21T06:21:06;97766.47;;;21.09;32.29
78509;BME280;67802;50.846;7.958;2023-03-21T06:23:31;97758.44;;;21.10;32.29
78509;BME280;67802;50.846;7.958;2023-03-21T06:25:56;97760.09;;;21.11;32.32
78509;BME280;67802;50.846;7.958;2023-03-21T06:28:21;97764.53;;;21.11;32.32
78509;BME280;67802;50.846;7.958;2023-03-21T06:30:47;97770.66;;;21.11;32.18
78509;BME280;67802;50.846;7.958;2023-03-21T06:33:12;97770.66;;;21.11;32.20
78509;BME280;67802;50.846;7.958;2023-03-21T06:35:37;97767.31;;;21.09;32.30
78509;BME280;67802;50.846;7.958;2023-03-21T06:38:03;97767.31;;;21.09;32.26
78509;BME280;67802;50.846;7.958;2023-03-21T06:40:28;97773.56;;;21.08;32.16
78509;BME280;67802;50.846;7.958;2023-03-21T06:42:53;97771.91;;;21.07;32.26
78509;BME280;67802;50.846;7.958;2023-03-21T06:45:19;97765.91;;;21.05;32.23
78509;BME280;67802;50.846;7.958;2023-03-21T06:47:44;97765.06;;;21.04;32.31
78509;BME280;67802;50.846;7.958;2023-03-21T06:50:10;97774.91;;;21.02;32.13
78509;BME280;67802;50.846;7.958;2023-03-21T06:52:35;97771.47;;;21.02;32.27
78509;BME280;67802;50.846;7.958;2023-03-21T06:55:00;97769.78;;;21.01;32.38
78509;BME280;67802;50.846;7.958;2023-03-21T06:57:26;97768.13;;;21.00;32.34
78509;BME280;67802;50.846;7.958;2023-03-21T06:59:51;97768.13;;;21.00;32.34
78509;BME280;67802;50.846;7.958;2023-03-21T07:02:16;97768.13;;;21.00;32.31
78509;BME280;67802;50.846;7.958;2023-03-21T07:04:41;97773.41;;;21.00;32.30
78509;BME280;67802;50.846;7.958;2023-03-21T07:07:07;97776.03;;;21.00;32.23
78509;BME280;67802;50.846;7.958;2023-03-21T07:09:32;97775.06;;;21.01;32.38
78509;BME280;67802;50.846;7.958;2023-03-21T07:11:57;97779.50;;;21.00;32.28
78509;BME280;67802;50.846;7.958;2023-03-21T07:14:23;97775.06;;;21.01;32.20
78509;BME280;67802;50.846;7.958;2023-03-21T07:16:48;97778.69;;;21.00;32.36
78509;BME280;67802;50.846;7.958;2023-03-21T07:19:13;97773.41;;;21.00;32.37
78509;BME280;67802;50.846;7.958;2023-03-21T07:21:39;97772.53;;;20.99;32.27
78509;BME280;67802;50.846;7.958;2023-03-21T07:24:05;97771.72;;;20.99;32.34
78509;BME280;67802;50.846;7.958;2023-03-21T07:26:30;97775.19;;;20.99;32.29
78509;BME280;67802;50.846;7.958;2023-03-21T07:28:56;97776.03;;;21.00;32.07
78509;BME280;67802;50.846;7.958;2023-03-21T07:31:21;97777.81;;;20.99;32.29
78509;BME280;67802;50.846;7.958;2023-03-21T07:33:50;97775.06;;;21.01;32.27
78509;BME280;67802;50.846;7.958;2023-03-21T07:36:16;97780.34;;;21.01;32.22
78509;BME280;67802;50.846;7.958;2023-03-21T07:38:42;97780.34;;;21.01;32.23
78509;BME280;67802;50.846;7.958;2023-03-21T07:41:08;97785.38;;;21.04;32.25
78509;BME280;67802;50.846;7.958;2023-03-21T07:43:34;97780.09;;;21.04;32.20
78509;BME280;67802;50.846;7.958;2023-03-21T07:45:59;97787.03;;;21.05;32.32
78509;BME280;67802;50.846;7.958;2023-03-21T07:48:25;97779.81;;;21.07;32.17
78509;BME280;67802;50.846;7.958;2023-03-21T07:50:51;97778.84;;;21.08;32.31
78509;BME280;67802;50.846;7.958;2023-03-21T07:53:17;97786.63;;;21.10;32.16
78509;BME280;67802;50.846;7.958;2023-03-21T07:55:43;97778.59;;;21.11;32.25
78509;BME280;67802;50.846;7.958;2023-03-21T07:58:08;97787.31;;;21.12;32.28
78509;BME280;67802;50.846;7.958;2023-03-21T08:00:34;97791.53;;;21.14;32.20
78509;BME280;67802;50.846;7.958;2023-03-21T08:02:59;97778.16;;;21.16;32.14
78509;BME280;67802;50.846;7.958;2023-03-21T08:05:43;97790.28;;;21.18;32.26
78509;BME280;67802;50.846;7.958;2023-03-21T08:08:09;97793.59;;;21.20;32.11
78509;BME280;67802;50.846;7.958;2023-03-21T08:10:34;97790.00;;;21.22;31.79
78509;BME280;67802;50.846;7.958;2023-03-21T08:13:00;97793.47;;;21.22;32.02
78509;BME280;67802;50.846;7.958;2023-03-21T08:15:25;97801.25;;;21.24;32.15
78509;BME280;67802;50.846;7.958;2023-03-21T08:17:51;97798.34;;;21.27;32.17
78509;BME280;67802;50.846;7.958;2023-03-21T08:20:18;97792.09;;;21.28;32.10
78509;BME280;67802;50.846;7.958;2023-03-21T08:22:46;97794.63;;;21.29;31.80
78509;BME280;67802;50.846;7.958;2023-03-21T08:25:13;97797.97;;;21.31;32.04
78509;BME280;67802;50.846;7.958;2023-03-21T08:27:40;97796.03;;;21.33;31.93
78509;BME280;67802;50.846;7.958;2023-03-21T08:30:07;97793.22;;;21.35;32.02
78509;BME280;67802;50.846;7.958;2023-03-21T08:32:33;97799.38;;;21.35;31.94
78509;BME280;67802;50.846;7.958;2023-03-21T08:35:02;97801.03;;;21.37;31.99
78509;BME280;67802;50.846;7.958;2023-03-21T08:37:28;97801.84;;;21.37;32.03
78509;BME280;67802;50.846;7.958;2023-03-21T08:39:53;97805.47;;;21.36;32.06
78509;BME280;67802;50.846;7.958;2023-03-21T08:42:19;97808.09;;;21.36;31.91
78509;BME280;67802;50.846;7.958;2023-03-21T08:44:46;97813.41;;;21.36;32.07
78509;BME280;67802;50.846;7.958;2023-03-21T08:47:12;97805.47;;;21.36;31.81
78509;BME280;67802;50.846;7.958;2023-03-21T08:49:37;97805.47;;;21.36;31.91
78509;BME280;67802;50.846;7.958;2023-03-21T08:52:02;97813.41;;;21.36;31.96
78509;BME280;67802;50.846;7.958;2023-03-21T08:54:28;97810.75;;;21.36;31.96
78509;BME280;67802;50.846;7.958;2023-03-21T08:56:53;97806.44;;;21.35;31.89
78509;BME280;67802;50.846;7.958;2023-03-21T08:59:19;97812.56;;;21.35;31.99
78509;BME280;67802;50.846;7.958;2023-03-21T09:01:44;97808.00;;;21.38;32.01
78509;BME280;67802;50.846;7.958;2023-03-21T09:04:09;97806.31;;;21.37;31.84
78509;BME280;67802;50.846;7.958;2023-03-21T09:06:36;97807.13;;;21.37;31.94
78509;BME280;67802;50.846;7.958;2023-03-21T09:09:02;97814.09;;;21.38;31.94
78509;BME280;67802;50.846;7.958;2023-03-21T09:11:30;97812.44;;;21.37;32.06
78509;BME280;67802;50.846;7.958;2023-03-21T09:13:55;97806.16;;;21.38;31.90
78509;BME280;67802;50.846;7.958;2023-03-21T09:16:20;97807.13;;;21.37;32.04
78509;BME280;67802;50.846;7.958;2023-03-21T09:18:46;97805.34;;;21.38;32.00
78509;BME280;67802;50.846;7.958;2023-03-21T09:21:16;97806.16;;;21.38;31.95
78509;BME280;67802;50.846;7.958;2023-03-21T09:23:42;97814.09;;;21.38;31.98
78509;BME280;67802;50.846;7.958;2023-03-21T09:26:12;97808.81;;;21.38;32.02
78509;BME280;67802;50.846;7.958;2023-03-21T09:28:38;97811.47;;;21.38;31.87
78509;BME280;67802;50.846;7.958;2023-03-21T09:31:05;97808.81;;;21.38;32.02
78509;BME280;67802;50.846;7.958;2023-03-21T09:33:32;97806.16;;;21.38;31.93
78509;BME280;67802;50.846;7.958;2023-03-21T09:35:59;97814.94;;;21.39;32.07
78509;BME280;67802;50.846;7.958;2023-03-21T09:38:25;97813.28;;;21.38;31.85
78509;BME280;67802;50.846;7.958;2023-03-21T09:41:02;97807.13;;;21.37;32.04
78509;BME280;67802;50.846;7.958;2023-03-21T09:43:38;97813.41;;;21.36;31.95
78509;BME280;67802;50.846;7.958;2023-03-21T09:46:27;97808.00;;;21.38;32.04
78509;BME280;67802;50.846;7.958;2023-03-21T09:48:59;97810.75;;;21.36;32.10
78509;BME280;67802;50.846;7.958;2023-03-21T09:51:29;97811.59;;;21.37;32.05
78509;BME280;67802;50.846;7.958;2023-03-21T09:53:58;97806.44;;;21.35;32.13
78509;BME280;67802;50.846;7.958;2023-03-21T09:56:26;97821.47;;;21.34;32.02
78509;BME280;67802;50.846;7.958;2023-03-21T09:58:55;97812.69;;;21.34;32.04
78509;BME280;67802;50.846;7.958;2023-03-21T10:01:30;97815.34;;;21.34;32.00
78509;BME280;67802;50.846;7.958;2023-03-21T10:04:07;97818.13;;;21.32;31.95
78509;BME280;67802;50.846;7.958;2023-03-21T10:06:36;97819.91;;;21.32;32.20
78509;BME280;67802;50.846;7.958;2023-03-21T10:09:07;97823.53;;;21.31;31.91
78509;BME280;67802;50.846;7.958;2023-03-21T10:11:48;97812.25;;;21.29;32.08
78509;BME280;67802;50.846;7.958;2023-03-21T10:14:24;97810.59;;;21.28;31.99
78509;BME280;67802;50.846;7.958;2023-03-21T10:16:53;97806.28;;;21.27;31.95
78509;BME280;67802;50.846;7.958;2023-03-21T10:19:21;97811.56;;;21.27;32.13
78509;BME280;67802;50.846;7.958;2023-03-21T10:21:49;97806.44;;;21.25;32.10
78509;BME280;67802;50.846;7.958;2023-03-21T10:24:18;97805.56;;;21.25;32.03
78509;BME280;67802;50.846;7.958;2023-03-21T10:26:46;97807.38;;;21.24;32.00
78509;BME280;67802;50.846;7.958;2023-03-21T10:29:13;97810.16;;;21.23;32.06
78509;BME280;67802;50.846;7.958;2023-03-21T10:31:41;97805.84;;;21.22;32.28
78509;BME280;67802;50.846;7.958;2023-03-21T10:34:22;97801.53;;;21.20;32.12
78509;BME280;67802;50.846;7.958;2023-03-21T10:36:51;97800.84;;;21.18;32.17
78509;BME280;67802;50.846;7.958;2023-03-21T10:39:26;97804.47;;;21.17;32.27
78509;BME280;67802;50.846;7.958;2023-03-21T10:41:52;97802.09;;;21.14;32.23
78509;BME280;67802;50.846;7.958;2023-03-21T10:44:18;97796.09;;;21.12;32.25
78509;BME280;67802;50.846;7.958;2023-03-21T10:46:58;97792.16;;;21.07;32.48
78509;BME280;67802;50.846;7.958;2023-03-21T10:49:29;97790.66;;;21.04;32.49
78509;BME280;67802;50.846;7.958;2023-03-21T10:52:02;97794.25;;;21.03;32.56
78509;BME280;67802;50.846;7.958;2023-03-21T10:54:30;97790.75;;;21.02;32.51
78509;BME280;67802;50.846;7.958;2023-03-21T10:57:12;97788.97;;;21.03;32.48
78509;BME280;67802;50.846;7.958;2023-03-21T10:59:44;97788.13;;;21.02;32.55
78509;BME280;67802;50.846;7.958;2023-03-21T11:02:23;97785.63;;;21.01;32.73
78509;BME280;67802;50.846;7.958;2023-03-21T11:04:49;97788.28;;;21.01;32.75
78509;BME280;67802;50.846;7.958;2023-03-21T11:07:17;97787.31;;;21.02;32.83
78509;BME280;67802;50.846;7.958;2023-03-21T11:09:48;97781.75;;;21.05;32.91
78509;BME280;67802;50.846;7.958;2023-03-21T11:12:28;97779.81;;;21.07;33.14
78509;BME280;67802;50.846;7.958;2023-03-21T11:14:53;97782.56;;;21.05;33.08
78509;BME280;67802;50.846;7.958;2023-03-21T11:17:21;97782.38;;;20.87;32.92
78509;BME280;67802;50.846;7.958;2023-03-21T11:19:51;97770.56;;;20.60;33.21
78509;BME280;67802;50.846;7.958;2023-03-21T11:22:19;97774.03;;;20.61;33.41
78509;BME280;67802;50.846;7.958;2023-03-21T11:24:56;97762.69;;;20.70;33.31
78509;BME280;67802;50.846;7.958;2023-03-21T11:27:23;97759.28;;;20.80;33.35
78509;BME280;67802;50.846;7.958;2023-03-21T11:29:53;97762.22;;;20.86;33.32
78509;BME280;67802;50.846;7.958;2023-03-21T11:32:25;97756.41;;;20.93;33.33
78509;BME280;67802;50.846;7.958;2023-03-21T11:35:05;97761.16;;;20.99;33.48
78509;BME280;67802;50.846;7.958;2023-03-21T11:37:40;97754.50;;;21.04;33.62
78509;BME280;67802;50.846;7.958;2023-03-21T11:40:33;97755.91;;;21.09;33.52
78509;BME280;67802;50.846;7.958;2023-03-21T11:43:05;97753.84;;;21.12;33.41
78509;BME280;67802;50.846;7.958;2023-03-21T11:45:55;97752.47;;;21.18;33.31
78509;BME280;67802;50.846;7.958;2023-03-21T11:48:22;97749.69;;;21.19;33.37
78509;BME280;67802;50.846;7.958;2023-03-21T11:50:49;97744.25;;;21.21;33.18
78509;BME280;67802;50.846;7.958;2023-03-21T11:56:23;97737.75;;;21.25;33.60
78509;BME280;67802;50.846;7.958;2023-03-21T11:59:06;97736.50;;;21.29;33.20
78509;BME280;67802;50.846;7.958;2023-03-21T12:02:15;97728.28;;;21.32;33.31
78509;BME280;67802;50.846;7.958;2023-03-21T12:05:00;97724.53;;;21.35;33.10
78509;BME280;67802;50.846;7.958;2023-03-21T12:13:36;97729.81;;;21.35;33.30
78509;BME280;67802;50.846;7.958;2023-03-21T12:22:05;97706.72;;;21.37;33.26
78509;BME280;67802;50.846;7.958;2023-03-21T12:30:10;97698.53;;;21.50;32.86
78509;BME280;67802;50.846;7.958;2023-03-21T12:32:50;97694.50;;;21.56;32.86
78509;BME280;67802;50.846;7.958;2023-03-21T12:41:27;97678.38;;;21.59;32.88
78509;BME280;67802;50.846;7.958;2023-03-21T12:44:16;97667.81;;;21.59;32.74
78509;BME280;67802;50.846;7.958;2023-03-21T12:46:50;97671.28;;;21.59;32.85
78509;BME280;67802;50.846;7.958;2023-03-21T12:49:31;97661.53;;;21.60;32.78
78509;BME280;67802;50.846;7.958;2023-03-21T12:52:07;97665.00;;;21.60;32.77
78509;BME280;67802;50.846;7.958;2023-03-21T12:55:02;97661.53;;;21.60;32.92
78509;BME280;67802;50.846;7.958;2023-03-21T12:57:35;97651.69;;;21.62;32.79
78509;BME280;67802;50.846;7.958;2023-03-21T13:00:10;97658.75;;;21.61;32.77
78509;BME280;67802;50.846;7.958;2023-03-21T13:05:38;97661.69;;;21.48;32.83
78509;BME280;67802;50.846;7.958;2023-03-21T13:08:16;97659.75;;;21.41;32.98
78509;BME280;67802;50.846;7.958;2023-03-21T13:10:44;97655.28;;;21.41;32.99
78509;BME280;67802;50.846;7.958;2023-03-21T13:13:35;97649.72;;;21.44;32.89
78509;BME280;67802;50.846;7.958;2023-03-21T13:16:44;97648.59;;;21.47;33.02
78509;BME280;67802;50.846;7.958;2023-03-21T13:24:40;97636.66;;;21.53;32.85
78509;BME280;67802;50.846;7.958;2023-03-21T13:30:01;97630.50;;;21.52;32.70
78509;BME280;67802;50.846;7.958;2023-03-21T13:32:40;97636.66;;;21.53;32.81
78509;BME280;67802;50.846;7.958;2023-03-21T13:35:21;97635.78;;;21.52;32.53
78509;BME280;67802;50.846;7.958;2023-03-21T13:37:52;97634.97;;;21.52;32.60
78509;BME280;67802;50.846;7.958;2023-03-21T13:42:57;97639.56;;;21.49;32.62
78509;BME280;67802;50.846;7.958;2023-03-21T13:45:43;97638.88;;;21.47;32.58
78509;BME280;67802;50.846;7.958;2023-03-21T13:51:18;97633.88;;;21.44;32.62
78509;BME280;67802;50.846;7.958;2023-03-21T13:59:12;97624.56;;;21.40;32.60
78509;BME280;67802;50.846;7.958;2023-03-21T14:01:57;97619.41;;;21.39;32.72
78509;BME280;67802;50.846;7.958;2023-03-21T14:04:26;97628.31;;;21.38;32.63
78509;BME280;67802;50.846;7.958;2023-03-21T14:06:55;97618.72;;;21.37;32.55
78509;BME280;67802;50.846;7.958;2023-03-21T14:09:29;97620.50;;;21.36;32.61
78509;BME280;67802;50.846;7.958;2023-03-21T14:11:58;97606.59;;;21.34;32.63
78509;BME280;67802;50.846;7.958;2023-03-21T14:14:29;97595.34;;;21.32;32.68
78509;BME280;67802;50.846;7.958;2023-03-21T14:16:57;97586.59;;;21.31;32.69
78509;BME280;67802;50.846;7.958;2023-03-21T14:19:30;97583.09;;;21.31;32.76
78509;BME280;67802;50.846;7.958;2023-03-21T14:21:56;97588.41;;;21.31;32.82
78509;BME280;67802;50.846;7.958;2023-03-21T14:24:22;97615.78;;;21.30;32.67